Time;durP1;ratioP1;P1;durP2;ratioP2;P2;SDS_P1;SDS_P2;PMS_P1;PMS_P2;Temp;Humidity;BMP_temperature;BMP_pressure;BME280_temperature;BME280_humidity;BME280_pressure;Samples;Min_cycle;Max_cycle;Signal;HPM_P1;HPM_P2
2023/12/08 00:01:54;;;;;;;33.88;17.45;;;;;;;;;;5031733;28;20484;-62
2023/12/08 00:04:22;;;;;;;32.78;17.80;;;;;;;;;;5041824;28;20060;-62
2023/12/08 00:06:52;;;;;;;31.33;17.40;;;;;;;;;;5017407;28;20137;-62
2023/12/08 00:09:19;;;;;;;33.15;17.83;;;;;;;;;;5035306;28;20065;-62
2023/12/08 00:11:47;;;;;;;36.35;17.50;;;;;;;;;;5035015;28;20056;-62
2023/12/08 00:14:15;;;;;;;33.97;18.70;;;;;;;;;;5034970;28;20083;-62
2023/12/08 00:16:43;;;;;;;36.83;18.65;;;;;;;;;;5035159;28;20077;-62
2023/12/08 00:19:10;;;;;;;36.67;18.83;;;;;;;;;;5017593;28;20108;-62
2023/12/08 00:21:38;;;;;;;36.60;20.08;;;;;;;;;;5017745;28;20049;-62
2023/12/08 00:24:06;;;;;;;37.28;18.92;;;;;;;;;;5035037;28;20037;-62
2023/12/08 00:26:33;;;;;;;37.85;19.83;;;;;;;;;;5034809;28;20045;-62
2023/12/08 00:29:01;;;;;;;37.45;20.08;;;;;;;;;;5035030;28;20124;-62
2023/12/08 00:31:29;;;;;;;40.47;20.95;;;;;;;;;;5034875;28;20091;-62
2023/12/08 00:33:57;;;;;;;38.60;19.70;;;;;;;;;;5017321;28;20649;-62
2023/12/08 00:36:25;;;;;;;35.63;18.52;;;;;;;;;;5036429;28;20072;-62
2023/12/08 00:38:54;;;;;;;35.65;18.92;;;;;;;;;;5043282;28;20132;-62
2023/12/08 00:41:22;;;;;;;36.25;19.60;;;;;;;;;;5054489;28;20044;-62
2023/12/08 00:43:50;;;;;;;36.92;19.23;;;;;;;;;;5054545;28;20037;-62
2023/12/08 00:46:18;;;;;;;33.97;18.10;;;;;;;;;;5054521;28;20051;-62
2023/12/08 00:48:45;;;;;;;36.05;17.75;;;;;;;;;;5054578;28;20116;-62
2023/12/08 00:51:13;;;;;;;32.97;17.42;;;;;;;;;;5054160;28;20041;-62
2023/12/08 00:53:42;;;;;;;34.17;17.73;;;;;;;;;;5042774;28;20053;-62
2023/12/08 00:56:10;;;;;;;32.13;17.83;;;;;;;;;;5034578;28;20061;-62
2023/12/08 00:58:38;;;;;;;36.08;17.65;;;;;;;;;;5016980;28;20037;-62
2023/12/08 01:01:05;;;;;;;38.72;18.95;;;;;;;;;;5016490;28;20053;-62
2023/12/08 01:03:33;;;;;;;34.60;17.75;;;;;;;;;;5034482;28;20084;-62
2023/12/08 01:06:01;;;;;;;34.67;18.73;;;;;;;;;;5034522;28;20430;-62
2023/12/08 01:08:28;;;;;;;36.03;18.50;;;;;;;;;;5034344;28;20045;-62
2023/12/08 01:10:56;;;;;;;35.58;18.33;;;;;;;;;;5033974;28;20052;-62
2023/12/08 01:13:23;;;;;;;34.70;18.52;;;;;;;;;;5034122;28;20507;-62
2023/12/08 01:15:51;;;;;;;36.53;18.60;;;;;;;;;;5034141;28;20037;-62
2023/12/08 01:18:18;;;;;;;39.08;19.40;;;;;;;;;;5039130;28;20059;-62
2023/12/08 01:20:46;;;;;;;35.72;18.77;;;;;;;;;;5053912;28;20487;-62
2023/12/08 01:23:14;;;;;;;33.67;18.00;;;;;;;;;;5053870;28;20421;-63
2023/12/08 01:25:41;;;;;;;34.70;18.10;;;;;;;;;;5053839;28;20033;-62
2023/12/08 01:28:09;;;;;;;38.33;19.30;;;;;;;;;;5040611;28;20052;-62
2023/12/08 01:30:36;;;;;;;39.65;20.02;;;;;;;;;;5033741;28;20041;-62
2023/12/08 01:33:04;;;;;;;35.83;18.45;;;;;;;;;;5033599;28;20095;-62
2023/12/08 01:35:31;;;;;;;33.47;19.08;;;;;;;;;;5033921;28;20088;-62
2023/12/08 01:37:59;;;;;;;35.33;18.60;;;;;;;;;;5033551;28;20052;-62
2023/12/08 01:40:26;;;;;;;36.45;18.38;;;;;;;;;;5016127;28;20038;-62
2023/12/08 01:42:54;;;;;;;36.20;17.70;;;;;;;;;;5033397;28;20053;-63
2023/12/08 01:45:21;;;;;;;40.30;19.48;;;;;;;;;;5033835;28;20042;-62
2023/12/08 01:47:49;;;;;;;35.35;19.35;;;;;;;;;;5015568;28;20068;-62
2023/12/08 01:50:18;;;;;;;36.78;18.83;;;;;;;;;;5033568;28;20038;-62
2023/12/08 01:52:46;;;;;;;36.20;19.83;;;;;;;;;;5033364;28;20056;-62
2023/12/08 01:55:14;;;;;;;38.78;18.95;;;;;;;;;;5033218;28;20042;-62
2023/12/08 01:57:42;;;;;;;37.15;19.42;;;;;;;;;;5033132;28;20511;-62
2023/12/08 02:00:10;;;;;;;35.45;18.27;;;;;;;;;;5033310;28;20405;-62
2023/12/08 02:02:38;;;;;;;35.33;17.77;;;;;;;;;;5033310;28;20045;-62
2023/12/08 02:05:06;;;;;;;36.03;18.45;;;;;;;;;;5015253;28;20578;-62
2023/12/08 02:07:34;;;;;;;34.47;18.83;;;;;;;;;;5033184;28;20045;-62
2023/12/08 02:10:02;;;;;;;37.85;18.98;;;;;;;;;;5032996;28;20040;-63
2023/12/08 02:12:30;;;;;;;34.92;17.52;;;;;;;;;;5033056;28;20042;-62
2023/12/08 02:14:59;;;;;;;34.80;18.52;;;;;;;;;;5032786;28;20037;-62
2023/12/08 02:17:35;;;;;;;38.55;18.58;;;;;;;;;;5015290;28;20049;-62
2023/12/08 02:20:03;;;;;;;35.55;18.75;;;;;;;;;;5033003;28;20057;-62
2023/12/08 02:22:30;;;;;;;38.78;18.88;;;;;;;;;;5014995;28;20045;-62
2023/12/08 02:24:58;;;;;;;38.47;18.85;;;;;;;;;;5032946;28;20049;-62
2023/12/08 02:27:26;;;;;;;39.70;18.38;;;;;;;;;;5015568;28;20033;-62
2023/12/08 02:29:54;;;;;;;35.50;18.08;;;;;;;;;;5032363;28;20576;-62
2023/12/08 02:32:22;;;;;;;37.83;19.05;;;;;;;;;;5032503;28;20042;-62
2023/12/08 02:34:51;;;;;;;34.92;18.92;;;;;;;;;;5014999;28;20049;-62
2023/12/08 02:37:19;;;;;;;37.58;20.55;;;;;;;;;;5015477;28;20045;-62
2023/12/08 02:39:48;;;;;;;42.42;19.58;;;;;;;;;;5032518;28;20037;-62
2023/12/08 02:42:16;;;;;;;38.00;18.98;;;;;;;;;;5032705;28;20411;-62
2023/12/08 02:44:43;;;;;;;39.20;19.50;;;;;;;;;;5032692;28;20045;-62
2023/12/08 02:47:11;;;;;;;40.35;19.20;;;;;;;;;;5032624;28;20044;-62
2023/12/08 02:49:38;;;;;;;38.53;19.67;;;;;;;;;;5014642;28;20046;-62
2023/12/08 02:52:06;;;;;;;35.80;19.77;;;;;;;;;;5032490;28;20041;-62
2023/12/08 02:54:34;;;;;;;35.35;18.95;;;;;;;;;;5032679;28;20125;-62
2023/12/08 02:57:01;;;;;;;35.88;18.13;;;;;;;;;;5032446;28;20038;-62
2023/12/08 02:59:29;;;;;;;34.70;18.00;;;;;;;;;;5032369;28;20113;-62
2023/12/08 03:01:56;;;;;;;39.05;19.13;;;;;;;;;;5032509;28;20076;-62
2023/12/08 03:04:24;;;;;;;40.28;19.58;;;;;;;;;;5014941;28;20045;-62
2023/12/08 03:06:51;;;;;;;34.28;18.45;;;;;;;;;;5032438;28;20050;-62
2023/12/08 03:09:19;;;;;;;41.30;20.40;;;;;;;;;;5032536;28;20037;-62
2023/12/08 03:11:46;;;;;;;33.40;17.33;;;;;;;;;;5032184;28;20041;-62
2023/12/08 03:14:14;;;;;;;35.35;18.08;;;;;;;;;;5037624;28;20067;-62
2023/12/08 03:16:41;;;;;;;34.60;17.85;;;;;;;;;;5032171;28;20474;-62
2023/12/08 03:19:09;;;;;;;34.90;17.95;;;;;;;;;;5032253;28;20041;-62
2023/12/08 03:21:36;;;;;;;35.65;18.10;;;;;;;;;;5032298;28;20116;-63
2023/12/08 03:24:04;;;;;;;35.30;18.02;;;;;;;;;;5044424;28;20466;-64
2023/12/08 03:26:32;;;;;;;32.40;16.80;;;;;;;;;;5051764;28;20124;-62
2023/12/08 03:28:59;;;;;;;35.17;17.60;;;;;;;;;;5014743;28;20045;-62
2023/12/08 03:31:32;;;;;;;32.97;16.98;;;;;;;;;;5032077;28;20045;-62
2023/12/08 03:33:59;;;;;;;30.75;17.08;;;;;;;;;;5017358;28;20045;-62
2023/12/08 03:36:28;;;;;;;32.47;16.42;;;;;;;;;;5051984;28;20067;-62
2023/12/08 03:38:55;;;;;;;32.08;16.10;;;;;;;;;;5052008;28;20037;-62
2023/12/08 03:41:23;;;;;;;30.67;15.88;;;;;;;;;;5053428;28;20049;-62
2023/12/08 03:43:51;;;;;;;27.88;15.43;;;;;;;;;;5037858;28;20557;-62
2023/12/08 03:46:18;;;;;;;31.48;15.48;;;;;;;;;;5052605;28;20045;-62
2023/12/08 03:48:46;;;;;;;29.48;15.88;;;;;;;;;;5045579;28;20064;-62
2023/12/08 03:51:17;;;;;;;28.30;14.80;;;;;;;;;;5042562;28;20041;-62
2023/12/08 03:53:44;;;;;;;29.25;16.40;;;;;;;;;;5042256;28;20407;-62
2023/12/08 03:56:12;;;;;;;29.08;15.57;;;;;;;;;;5026977;28;20041;-62
2023/12/08 03:58:39;;;;;;;27.35;14.80;;;;;;;;;;5024833;28;20052;-62
2023/12/08 04:01:07;;;;;;;30.65;16.00;;;;;;;;;;5042962;28;20038;-62
2023/12/08 04:03:39;;;;;;;29.52;15.75;;;;;;;;;;5055414;28;20049;-62
2023/12/08 04:06:07;;;;;;;34.55;16.65;;;;;;;;;;5055537;28;20041;-62
2023/12/08 04:08:35;;;;;;;37.47;19.75;;;;;;;;;;5044827;28;20434;-62
2023/12/08 04:11:03;;;;;;;37.28;19.48;;;;;;;;;;5035779;28;20115;-62
2023/12/08 04:13:30;;;;;;;42.15;23.33;;;;;;;;;;5055235;28;20088;-62
2023/12/08 04:15:58;;;;;;;44.95;25.08;;;;;;;;;;5055169;28;20491;-62
2023/12/08 04:18:25;;;;;;;56.35;32.65;;;;;;;;;;5021093;28;20037;-62
2023/12/08 04:20:53;;;;;;;75.57;41.05;;;;;;;;;;5017245;28;20061;-62
2023/12/08 04:23:21;;;;;;;74.45;40.90;;;;;;;;;;5035105;28;20041;-62
2023/12/08 04:25:48;;;;;;;75.10;40.72;;;;;;;;;;5035313;28;20044;-62
2023/12/08 04:28:16;;;;;;;58.28;31.45;;;;;;;;;;5035150;28;20044;-62
2023/12/08 04:30:43;;;;;;;39.95;22.38;;;;;;;;;;5034891;28;20038;-62
2023/12/08 04:33:11;;;;;;;33.65;18.00;;;;;;;;;;5034851;28;20043;-62
2023/12/08 04:35:39;;;;;;;37.03;19.20;;;;;;;;;;5034810;28;20053;-62
2023/12/08 04:38:06;;;;;;;29.63;16.15;;;;;;;;;;5051488;28;20041;-62
2023/12/08 04:40:34;;;;;;;30.95;16.20;;;;;;;;;;5046670;28;20487;-62
2023/12/08 04:43:01;;;;;;;28.63;15.82;;;;;;;;;;5041920;28;20382;-63
2023/12/08 04:45:29;;;;;;;29.90;15.75;;;;;;;;;;5034668;28;20046;-63
2023/12/08 04:47:58;;;;;;;31.58;16.30;;;;;;;;;;5047855;28;20494;-63
2023/12/08 04:50:26;;;;;;;31.58;15.63;;;;;;;;;;5054469;28;20124;-62
2023/12/08 04:52:53;;;;;;;29.75;16.40;;;;;;;;;;5053669;28;20469;-63
2023/12/08 04:55:21;;;;;;;30.48;16.27;;;;;;;;;;5054496;28;20490;-63
2023/12/08 04:57:49;;;;;;;27.95;14.93;;;;;;;;;;5054354;28;20113;-63
2023/12/08 05:00:17;;;;;;;25.75;15.23;;;;;;;;;;5054294;28;20132;-63
2023/12/08 05:02:45;;;;;;;29.40;15.40;;;;;;;;;;5054129;28;20040;-63
2023/12/08 05:05:12;;;;;;;28.30;15.18;;;;;;;;;;5054387;28;20045;-63
2023/12/08 05:07:40;;;;;;;27.55;15.25;;;;;;;;;;5054118;28;20128;-63
2023/12/08 05:10:08;;;;;;;30.50;17.27;;;;;;;;;;5054184;28;20041;-63
2023/12/08 05:12:35;;;;;;;30.88;15.45;;;;;;;;;;5036405;28;20045;-63
2023/12/08 05:15:04;;;;;;;31.40;17.00;;;;;;;;;;5036090;28;20065;-62
2023/12/08 05:17:31;;;;;;;30.00;16.48;;;;;;;;;;5054031;28;20040;-63
2023/12/08 05:20:02;;;;;;;32.50;17.40;;;;;;;;;;5053870;28;20041;-63
2023/12/08 05:22:32;;;;;;;27.85;14.90;;;;;;;;;;5054008;28;20447;-62
2023/12/08 05:24:59;;;;;;;31.77;16.85;;;;;;;;;;5053875;28;20368;-63
2023/12/08 05:27:27;;;;;;;29.23;15.70;;;;;;;;;;5036103;28;20041;-62
2023/12/08 05:29:55;;;;;;;29.98;15.38;;;;;;;;;;5053929;28;20092;-63
2023/12/08 05:32:23;;;;;;;29.48;16.23;;;;;;;;;;5053609;28;20492;-63
2023/12/08 05:34:51;;;;;;;29.30;15.65;;;;;;;;;;5040547;28;20121;-63
2023/12/08 05:37:18;;;;;;;34.80;17.33;;;;;;;;;;5033585;28;20424;-62
2023/12/08 05:39:46;;;;;;;30.65;15.60;;;;;;;;;;5033478;28;20038;-63
2023/12/08 05:42:13;;;;;;;32.75;16.00;;;;;;;;;;5016277;28;20037;-63
2023/12/08 05:44:41;;;;;;;31.45;15.45;;;;;;;;;;5033339;28;20041;-63
2023/12/08 05:47:09;;;;;;;30.67;15.90;;;;;;;;;;5033846;28;20044;-64
2023/12/08 05:49:36;;;;;;;30.98;16.33;;;;;;;;;;5033592;28;20395;-64
2023/12/08 05:52:04;;;;;;;30.65;16.00;;;;;;;;;;5015715;28;20061;-64
2023/12/08 05:54:32;;;;;;;27.30;14.55;;;;;;;;;;5033266;28;20104;-62
2023/12/08 05:56:59;;;;;;;27.23;14.48;;;;;;;;;;5033193;28;20091;-62
2023/12/08 05:59:27;;;;;;;27.02;14.88;;;;;;;;;;5033359;28;20037;-62
2023/12/08 06:01:55;;;;;;;28.17;15.02;;;;;;;;;;5033389;28;20095;-63
2023/12/08 06:04:22;;;;;;;28.05;15.07;;;;;;;;;;5042572;28;20482;-63
2023/12/08 06:06:50;;;;;;;29.27;15.93;;;;;;;;;;5052881;28;20230;-64
2023/12/08 06:09:18;;;;;;;33.30;17.13;;;;;;;;;;5053215;28;20064;-63
2023/12/08 06:11:45;;;;;;;30.05;16.10;;;;;;;;;;5035098;28;20459;-63
2023/12/08 06:14:13;;;;;;;26.65;15.10;;;;;;;;;;5053208;28;20102;-63
2023/12/08 06:16:41;;;;;;;26.65;14.30;;;;;;;;;;5052953;28;20119;-63
2023/12/08 06:19:08;;;;;;;26.05;14.18;;;;;;;;;;5052879;28;20044;-63
2023/12/08 06:21:36;;;;;;;26.40;14.85;;;;;;;;;;5052855;28;20093;-63
2023/12/08 06:24:04;;;;;;;27.20;15.80;;;;;;;;;;5052810;28;20554;-63
2023/12/08 06:26:32;;;;;;;27.25;14.85;;;;;;;;;;5053131;28;20033;-63
2023/12/08 06:28:59;;;;;;;24.35;14.27;;;;;;;;;;5052859;28;20041;-63
2023/12/08 06:31:27;;;;;;;23.90;12.90;;;;;;;;;;5052659;28;20513;-63
2023/12/08 06:33:54;;;;;;;23.05;12.85;;;;;;;;;;5035126;28;20498;-63
2023/12/08 06:36:45;;;;;;;20.65;11.05;;;;;;;;;;5053122;28;20056;-63
2023/12/08 06:39:15;;;;;;;22.58;12.70;;;;;;;;;;5052665;28;20045;-63
2023/12/08 06:41:43;;;;;;;30.60;19.00;;;;;;;;;;5052588;28;20514;-63
2023/12/08 06:44:11;;;;;;;27.63;15.88;;;;;;;;;;5052648;28;20580;-63
2023/12/08 06:46:38;;;;;;;23.85;13.68;;;;;;;;;;5052838;28;20099;-64
2023/12/08 06:49:06;;;;;;;25.55;14.95;;;;;;;;;;5052565;28;20045;-63
2023/12/08 06:51:35;;;;;;;23.88;13.77;;;;;;;;;;5052409;28;20040;-64
2023/12/08 06:54:03;;;;;;;25.45;13.25;;;;;;;;;;5052336;28;20056;-63
2023/12/08 06:56:31;;;;;;;25.17;13.23;;;;;;;;;;5035094;28;20041;-64
2023/12/08 06:58:58;;;;;;;24.77;12.98;;;;;;;;;;5052333;28;20044;-63
2023/12/08 07:01:26;;;;;;;23.77;14.63;;;;;;;;;;5052481;28;20417;-63
2023/12/08 07:03:54;;;;;;;24.48;13.88;;;;;;;;;;5052358;28;20033;-63
2023/12/08 07:06:22;;;;;;;21.50;12.25;;;;;;;;;;5052563;28;20056;-63
2023/12/08 07:08:50;;;;;;;24.13;13.40;;;;;;;;;;5052392;28;20056;-63
2023/12/08 07:11:17;;;;;;;23.25;13.52;;;;;;;;;;5052464;28;20048;-63
2023/12/08 07:13:45;;;;;;;27.92;15.63;;;;;;;;;;5052338;28;20076;-64
2023/12/08 07:16:13;;;;;;;23.65;13.05;;;;;;;;;;5055184;28;20047;-63
2023/12/08 07:18:40;;;;;;;22.17;12.70;;;;;;;;;;5056211;28;20479;-63
2023/12/08 07:21:08;;;;;;;24.13;13.70;;;;;;;;;;5056297;28;20116;-64
2023/12/08 07:23:36;;;;;;;22.55;12.85;;;;;;;;;;5056146;28;20052;-63
2023/12/08 07:26:07;;;;;;;25.02;14.30;;;;;;;;;;5056316;28;20094;-64
2023/12/08 07:28:34;;;;;;;22.45;13.38;;;;;;;;;;5056058;28;20553;-63
2023/12/08 07:31:02;;;;;;;25.52;14.38;;;;;;;;;;5056294;28;20475;-63
2023/12/08 07:33:29;;;;;;;25.27;14.50;;;;;;;;;;5038277;28;20041;-64
2023/12/08 07:35:57;;;;;;;22.23;13.63;;;;;;;;;;5055797;28;20041;-64
2023/12/08 07:38:25;;;;;;;22.25;13.63;;;;;;;;;;5056101;28;20124;-64
2023/12/08 07:40:53;;;;;;;24.75;13.65;;;;;;;;;;5055833;28;20060;-64
2023/12/08 07:43:20;;;;;;;23.42;14.45;;;;;;;;;;5055968;28;20441;-64
2023/12/08 07:45:48;;;;;;;24.65;14.20;;;;;;;;;;5055647;28;20056;-64
2023/12/08 07:48:16;;;;;;;22.48;13.23;;;;;;;;;;5055819;28;20083;-64
2023/12/08 07:50:43;;;;;;;20.77;12.63;;;;;;;;;;5055696;28;20063;-64
2023/12/08 07:53:11;;;;;;;25.13;13.98;;;;;;;;;;5055423;28;20079;-64
2023/12/08 07:55:39;;;;;;;23.05;13.27;;;;;;;;;;5037810;28;20129;-64
2023/12/08 07:58:06;;;;;;;23.88;13.82;;;;;;;;;;5055575;28;20044;-63
2023/12/08 08:00:34;;;;;;;22.10;12.75;;;;;;;;;;5055520;28;20037;-64
2023/12/08 08:03:02;;;;;;;24.10;13.10;;;;;;;;;;5055468;28;20079;-64
2023/12/08 08:05:30;;;;;;;22.48;12.95;;;;;;;;;;5055581;28;20276;-64
2023/12/08 08:07:57;;;;;;;21.30;13.32;;;;;;;;;;5055630;28;20037;-64
2023/12/08 08:10:25;;;;;;;24.05;13.82;;;;;;;;;;5055230;28;20505;-63
2023/12/08 08:12:52;;;;;;;21.60;13.27;;;;;;;;;;5037630;28;20079;-64
2023/12/08 08:15:20;;;;;;;24.60;14.00;;;;;;;;;;5055213;28;20047;-64
2023/12/08 08:17:49;;;;;;;26.23;14.38;;;;;;;;;;5055171;28;20114;-63
2023/12/08 08:20:16;;;;;;;23.95;14.30;;;;;;;;;;5054925;28;20124;-64
2023/12/08 08:22:44;;;;;;;25.90;15.65;;;;;;;;;;5054943;28;20037;-63
2023/12/08 08:25:11;;;;;;;23.88;14.90;;;;;;;;;;5054971;28;20131;-64
2023/12/08 08:27:39;;;;;;;24.17;14.55;;;;;;;;;;5054176;28;20053;-64
2023/12/08 08:30:07;;;;;;;21.95;13.65;;;;;;;;;;5054980;28;20580;-64
2023/12/08 08:32:35;;;;;;;23.17;13.13;;;;;;;;;;5055012;28;20445;-64
2023/12/08 08:35:03;;;;;;;22.42;12.48;;;;;;;;;;5054814;28;20040;-64
2023/12/08 08:37:30;;;;;;;21.63;12.25;;;;;;;;;;5054808;28;20037;-63
2023/12/08 08:39:58;;;;;;;20.90;12.68;;;;;;;;;;5054640;28;20441;-64
2023/12/08 08:42:26;;;;;;;22.55;14.02;;;;;;;;;;5036979;28;20102;-63
2023/12/08 08:44:53;;;;;;;23.85;13.70;;;;;;;;;;5054693;28;20041;-64
2023/12/08 08:47:21;;;;;;;23.90;13.13;;;;;;;;;;5054586;28;20037;-63
2023/12/08 08:49:50;;;;;;;24.35;13.40;;;;;;;;;;5054650;28;20068;-63
2023/12/08 08:52:18;;;;;;;23.92;13.15;;;;;;;;;;5054209;28;20060;-64
2023/12/08 08:54:49;;;;;;;25.40;14.55;;;;;;;;;;5054541;28;20045;-63
2023/12/08 08:57:17;;;;;;;24.80;13.95;;;;;;;;;;5054460;28;20041;-63
2023/12/08 08:59:44;;;;;;;29.92;15.85;;;;;;;;;;5054261;28;20063;-64
2023/12/08 09:02:12;;;;;;;26.02;14.25;;;;;;;;;;5054273;28;20045;-64
2023/12/08 09:04:40;;;;;;;22.42;12.10;;;;;;;;;;5053940;28;20045;-64
2023/12/08 09:07:07;;;;;;;20.75;11.70;;;;;;;;;;5054377;28;20560;-64
2023/12/08 09:09:35;;;;;;;23.05;12.82;;;;;;;;;;5054204;28;20041;-64
2023/12/08 09:12:08;;;;;;;19.80;13.10;;;;;;;;;;5054133;28;20040;-61
2023/12/08 09:14:38;;;;;;;23.48;13.50;;;;;;;;;;5054116;28;20041;-63
2023/12/08 09:17:06;;;;;;;24.00;14.50;;;;;;;;;;5054067;28;20040;-64
2023/12/08 09:19:33;;;;;;;24.60;14.40;;;;;;;;;;5054009;28;20127;-63
2023/12/08 09:22:01;;;;;;;20.80;12.93;;;;;;;;;;5054288;28;20041;-64
2023/12/08 09:24:28;;;;;;;23.30;13.30;;;;;;;;;;5053782;28;20041;-64
2023/12/08 09:26:56;;;;;;;23.88;13.85;;;;;;;;;;5053934;28;20037;-64
2023/12/08 09:29:24;;;;;;;24.20;12.98;;;;;;;;;;5053805;28;20079;-64
2023/12/08 09:31:52;;;;;;;27.45;15.32;;;;;;;;;;5053833;28;20418;-64
2023/12/08 09:34:19;;;;;;;25.80;14.98;;;;;;;;;;5053604;28;20044;-63
2023/12/08 09:36:47;;;;;;;25.85;14.93;;;;;;;;;;5036064;28;20438;-64
2023/12/08 09:39:35;;;;;;;23.83;13.88;;;;;;;;;;5053904;28;20394;-63
2023/12/08 09:42:06;;;;;;;26.60;14.13;;;;;;;;;;5053863;28;20106;-63
2023/12/08 09:44:35;;;;;;;25.27;14.73;;;;;;;;;;5053583;28;20379;-64
2023/12/08 09:47:03;;;;;;;22.67;13.25;;;;;;;;;;5053422;28;20037;-63
2023/12/08 09:49:34;;;;;;;22.20;12.63;;;;;;;;;;5053848;28;20296;-64
2023/12/08 09:52:02;;;;;;;26.85;14.93;;;;;;;;;;5054034;28;20491;-64
2023/12/08 09:54:30;;;;;;;23.80;13.30;;;;;;;;;;5053488;28;20758;-64
2023/12/08 09:57:00;;;;;;;23.27;13.40;;;;;;;;;;5053402;28;20333;-64
2023/12/08 09:59:30;;;;;;;23.30;12.57;;;;;;;;;;5035340;28;20052;-64
2023/12/08 10:01:58;;;;;;;27.70;13.90;;;;;;;;;;5053347;28;20041;-64
2023/12/08 10:04:26;;;;;;;22.70;13.77;;;;;;;;;;5053250;28;20119;-64
2023/12/08 10:06:59;;;;;;;27.25;14.95;;;;;;;;;;5053210;28;20037;-63
2023/12/08 10:09:29;;;;;;;24.48;13.82;;;;;;;;;;5053197;28;20162;-64
2023/12/08 10:11:56;;;;;;;23.70;13.88;;;;;;;;;;5053138;28;20376;-64
2023/12/08 10:14:25;;;;;;;21.83;12.85;;;;;;;;;;5035496;28;20564;-64
2023/12/08 10:16:52;;;;;;;22.52;13.20;;;;;;;;;;5053288;28;20055;-64
2023/12/08 10:19:21;;;;;;;23.15;13.52;;;;;;;;;;5052875;28;20098;-62
2023/12/08 10:22:02;;;;;;;24.45;14.50;;;;;;;;;;5052999;28;20041;-62
2023/12/08 10:24:30;;;;;;;24.90;14.80;;;;;;;;;;5052973;28;20498;-63
2023/12/08 10:26:59;;;;;;;24.08;13.93;;;;;;;;;;5052870;28;20540;-63
2023/12/08 10:29:33;;;;;;;24.50;14.63;;;;;;;;;;5052719;28;20052;-63
2023/12/08 10:32:04;;;;;;;23.88;15.18;;;;;;;;;;5052739;28;20479;-63
2023/12/08 10:34:32;;;;;;;24.15;14.07;;;;;;;;;;5052578;28;20461;-63
2023/12/08 10:37:00;;;;;;;22.55;13.68;;;;;;;;;;5052612;28;20399;-63
2023/12/08 10:39:28;;;;;;;30.27;16.60;;;;;;;;;;5052607;28;20041;-63
2023/12/08 10:41:55;;;;;;;24.42;14.93;;;;;;;;;;5052511;28;20037;-63
2023/12/08 10:44:23;;;;;;;25.10;15.45;;;;;;;;;;5052652;28;20131;-63
2023/12/08 10:46:53;;;;;;;25.30;14.70;;;;;;;;;;5052437;28;20131;-63
2023/12/08 10:49:21;;;;;;;23.27;14.93;;;;;;;;;;5052223;28;20043;-64
2023/12/08 10:51:50;;;;;;;21.42;13.25;;;;;;;;;;5052469;28;20545;-64
2023/12/08 10:54:18;;;;;;;23.95;15.02;;;;;;;;;;5052125;28;20052;-64
2023/12/08 10:56:46;;;;;;;26.30;15.75;;;;;;;;;;5052322;28;20029;-64
2023/12/08 10:59:18;;;;;;;22.02;13.25;;;;;;;;;;5052364;28;20125;-64
2023/12/08 11:01:47;;;;;;;24.65;15.02;;;;;;;;;;5052254;28;20049;-64
2023/12/08 11:04:20;;;;;;;22.50;14.32;;;;;;;;;;5052313;28;20048;-64
2023/12/08 11:07:11;;;;;;;26.27;16.40;;;;;;;;;;5052383;28;20048;-64
2023/12/08 11:09:40;;;;;;;26.30;16.65;;;;;;;;;;5052498;28;20049;-63
2023/12/08 11:12:08;;;;;;;35.55;20.60;;;;;;;;;;5052314;28;20064;-64
2023/12/08 11:14:39;;;;;;;25.08;15.27;;;;;;;;;;5052179;28;20406;-64
2023/12/08 11:17:12;;;;;;;26.95;17.13;;;;;;;;;;5052239;28;20044;-64
2023/12/08 11:19:40;;;;;;;28.45;15.75;;;;;;;;;;5052312;28;20095;-64
2023/12/08 11:22:08;;;;;;;30.73;17.92;;;;;;;;;;5052436;28;20041;-64
2023/12/08 11:24:36;;;;;;;25.25;15.45;;;;;;;;;;5052149;28;20071;-64
2023/12/08 11:27:24;;;;;;;28.50;16.90;;;;;;;;;;5052127;28;20120;-64
2023/12/08 11:30:16;;;;;;;25.85;16.20;;;;;;;;;;5052102;28;20147;-64
2023/12/08 11:32:56;;;;;;;24.48;14.63;;;;;;;;;;5051927;28;20036;-64
2023/12/08 11:35:23;;;;;;;26.63;14.43;;;;;;;;;;5051989;28;20052;-64
2023/12/08 11:37:51;;;;;;;27.27;15.60;;;;;;;;;;5048712;28;20403;-64
2023/12/08 11:40:19;;;;;;;26.08;15.77;;;;;;;;;;5042104;28;20132;-65
2023/12/08 11:42:48;;;;;;;25.27;15.85;;;;;;;;;;5047308;28;20486;-64
2023/12/08 11:45:18;;;;;;;28.25;16.58;;;;;;;;;;5037802;28;20049;-64
2023/12/08 11:47:45;;;;;;;29.15;17.17;;;;;;;;;;5038182;28;20124;-64
2023/12/08 11:50:13;;;;;;;24.80;15.30;;;;;;;;;;5037478;28;20049;-65
2023/12/08 11:52:44;;;;;;;25.25;15.20;;;;;;;;;;5037111;28;20372;-64
2023/12/08 11:58:00;;;;;;;27.73;16.38;;;;;;;;;;5037948;28;20045;-66
2023/12/08 12:00:28;;;;;;;27.05;15.88;;;;;;;;;;5036509;28;20445;-64
2023/12/08 12:02:57;;;;;;;24.73;15.68;;;;;;;;;;5041127;28;20449;-64
2023/12/08 12:05:26;;;;;;;23.23;15.25;;;;;;;;;;5039110;28;20045;-65
2023/12/08 12:07:54;;;;;;;22.63;13.95;;;;;;;;;;5049669;28;20072;-64
2023/12/08 12:10:24;;;;;;;23.88;14.85;;;;;;;;;;5054841;28;20119;-64
2023/12/08 12:12:56;;;;;;;24.58;15.38;;;;;;;;;;5055001;28;20033;-64
2023/12/08 12:15:25;;;;;;;23.75;15.55;;;;;;;;;;5055122;28;20533;-63
2023/12/08 12:17:53;;;;;;;25.90;15.80;;;;;;;;;;5055320;28;20045;-63
2023/12/08 12:20:21;;;;;;;25.85;14.60;;;;;;;;;;5055130;28;20048;-63
2023/12/08 12:22:48;;;;;;;25.27;15.73;;;;;;;;;;5054971;28;20055;-63
2023/12/08 12:25:17;;;;;;;24.58;15.43;;;;;;;;;;5055052;28;20112;-62
2023/12/08 12:27:46;;;;;;;26.60;16.35;;;;;;;;;;5055180;28;20407;-63
2023/12/08 12:30:15;;;;;;;29.33;16.30;;;;;;;;;;5054757;28;20555;-63
2023/12/08 12:32:44;;;;;;;24.98;14.75;;;;;;;;;;5055012;28;20094;-64
2023/12/08 12:35:13;;;;;;;25.02;14.07;;;;;;;;;;5054793;28;20045;-64
2023/12/08 12:37:41;;;;;;;24.13;14.85;;;;;;;;;;5054881;28;20036;-64
2023/12/08 12:40:09;;;;;;;26.55;16.65;;;;;;;;;;5054883;28;20457;-64
2023/12/08 12:42:44;;;;;;;46.17;27.15;;;;;;;;;;5054711;28;20483;-64
2023/12/08 12:45:25;;;;;;;27.17;16.08;;;;;;;;;;5054596;28;20053;-64
2023/12/08 12:48:03;;;;;;;28.58;16.25;;;;;;;;;;5054604;28;20041;-64
2023/12/08 12:50:31;;;;;;;24.27;14.57;;;;;;;;;;5054483;28;20567;-64
2023/12/08 12:53:05;;;;;;;24.52;14.00;;;;;;;;;;5054638;28;20415;-64
2023/12/08 12:55:33;;;;;;;26.13;15.20;;;;;;;;;;5054654;28;20410;-64
2023/12/08 12:58:02;;;;;;;28.48;16.23;;;;;;;;;;5054379;28;20124;-64
2023/12/08 13:00:29;;;;;;;28.75;17.25;;;;;;;;;;5054704;28;20474;-65
2023/12/08 13:02:57;;;;;;;29.60;15.95;;;;;;;;;;5054359;28;20114;-64
2023/12/08 13:05:25;;;;;;;29.67;17.63;;;;;;;;;;5054166;28;20112;-64
2023/12/08 13:07:57;;;;;;;35.95;21.33;;;;;;;;;;5054303;28;20094;-64
2023/12/08 13:10:24;;;;;;;29.15;18.08;;;;;;;;;;5054076;28;20049;-64
2023/12/08 13:12:52;;;;;;;28.67;15.55;;;;;;;;;;5053956;28;20076;-64
2023/12/08 13:15:19;;;;;;;26.17;16.00;;;;;;;;;;5054030;28;20049;-64
2023/12/08 13:17:47;;;;;;;25.77;16.10;;;;;;;;;;5054084;28;20094;-64
2023/12/08 13:20:15;;;;;;;29.77;18.35;;;;;;;;;;5053933;28;20045;-64
2023/12/08 13:22:43;;;;;;;32.55;18.58;;;;;;;;;;5054061;28;20052;-64
2023/12/08 13:25:10;;;;;;;31.00;18.10;;;;;;;;;;5053812;28;20554;-64
2023/12/08 13:27:38;;;;;;;35.63;19.45;;;;;;;;;;5053941;28;20075;-64
2023/12/08 13:30:07;;;;;;;69.88;34.53;;;;;;;;;;5053777;28;20045;-64
2023/12/08 13:32:34;;;;;;;31.60;17.50;;;;;;;;;;5053769;28;20040;-64
2023/12/08 13:35:02;;;;;;;26.95;16.15;;;;;;;;;;5053694;28;20044;-64
2023/12/08 13:37:30;;;;;;;35.05;20.00;;;;;;;;;;5053782;28;20474;-64
2023/12/08 13:39:57;;;;;;;53.92;31.15;;;;;;;;;;5019384;28;20080;-64
2023/12/08 13:42:25;;;;;;;33.83;20.67;;;;;;;;;;5053592;28;20048;-64
2023/12/08 13:44:53;;;;;;;31.38;19.00;;;;;;;;;;5035762;28;20672;-64
2023/12/08 13:47:20;;;;;;;37.47;20.33;;;;;;;;;;5053460;28;20095;-64
2023/12/08 13:49:49;;;;;;;43.95;21.05;;;;;;;;;;5053412;28;20052;-64
2023/12/08 13:52:16;;;;;;;36.72;20.45;;;;;;;;;;5053611;28;20041;-64
2023/12/08 13:54:44;;;;;;;25.83;16.02;;;;;;;;;;5053475;28;20053;-64
2023/12/08 13:57:11;;;;;;;29.38;16.92;;;;;;;;;;5053428;28;20060;-64
2023/12/08 13:59:39;;;;;;;28.50;17.33;;;;;;;;;;5053242;28;20112;-64
2023/12/08 14:02:07;;;;;;;25.90;15.45;;;;;;;;;;5053232;28;20115;-64
2023/12/08 14:04:34;;;;;;;38.95;20.80;;;;;;;;;;5053264;28;20124;-64
2023/12/08 14:07:02;;;;;;;36.65;21.30;;;;;;;;;;5053442;28;20045;-64
2023/12/08 14:09:30;;;;;;;27.88;16.10;;;;;;;;;;5053145;28;20415;-64
2023/12/08 14:11:57;;;;;;;30.48;18.67;;;;;;;;;;5053020;28;20073;-64
2023/12/08 14:14:25;;;;;;;28.05;17.33;;;;;;;;;;5035302;28;20044;-64
2023/12/08 14:16:52;;;;;;;27.25;15.52;;;;;;;;;;5052971;28;20079;-64
2023/12/08 14:19:20;;;;;;;28.27;17.17;;;;;;;;;;5052855;28;20447;-64
2023/12/08 14:21:48;;;;;;;26.27;16.08;;;;;;;;;;5051930;28;20120;-66
2023/12/08 14:24:16;;;;;;;27.02;15.85;;;;;;;;;;5045825;28;20037;-65
2023/12/08 14:26:44;;;;;;;24.63;14.90;;;;;;;;;;5039218;28;20041;-63